Seneimaru — JG5357 — position and weather

sailwx.info

Track history (hours):
 
Tides and Currents Weather Stations Pressure Air Temp Water Temp Dewpoint Dewpoint Depression Visibility Wind Speed Wind Dir Waves Ship Positions

Seneimaru

Last reported at 2014-Jul-29 11:28 UTC. Time now 2014-Jul-30 09:14 UTC.
Position N 34°10' E 140°12'.

Length 72 m; draft 5.9 m.

Type: Cargo ship. MMSI: 431100477.

Date/timePositionNaut miles runAvg speedWind from/ knotsBaromVisibWave heightAir tempDewpointWater temp
2014-Jul-29 11:28N 34°10' E 140°12'10 9.6
2014-Jul-29 10:27N 34°19' E 140°07'1010.8
2014-Jul-29 09:33N 34°28' E 140°01'3311.0
2014-Jul-29 06:33N 34°57' E 139°43'1110.6
2014-Jul-29 05:33N 35°08' E 139°45'1110.6
2014-Jul-29 04:33N 35°18' E 139°44'10 9.7
2014-Jul-29 03:33N 35°28' E 139°47'4 3.8
2014-Jul-29 02:32N 35°30' E 139°43'0 0.0
2014-Jul-29 01:32N 35°30' E 139°43'0 0.0
2014-Jul-29 00:32N 35°30' E 139°43'0 0.0
2014-Jul-28 23:32N 35°30' E 139°43'0 0.0
2014-Jul-28 22:32N 35°30' E 139°43'0 0.0
2014-Jul-28 21:32N 35°30' E 139°43'0 0.0
2014-Jul-28 20:32N 35°30' E 139°43'0 0.0
2014-Jul-28 19:32N 35°30' E 139°43'0 0.0
2014-Jul-28 18:32N 35°30' E 139°43'0 0.0
2014-Jul-28 17:32N 35°30' E 139°43'0 0.0
2014-Jul-28 16:32N 35°30' E 139°43'0 0.0
2014-Jul-28 15:32N 35°30' E 139°43'0 0.0
2014-Jul-28 14:32N 35°30' E 139°43'0 0.0
2014-Jul-28 13:32N 35°30' E 139°43'0 0.0
2014-Jul-28 12:32N 35°30' E 139°43'0 0.0
2014-Jul-28 11:32N 35°30' E 139°43'0 0.0
2014-Jul-28 10:32N 35°30' E 139°43'0 0.0
2014-Jul-28 09:32N 35°30' E 139°43'0 0.0
2014-Jul-28 08:32N 35°30' E 139°43'0 0.0
2014-Jul-28 07:32N 35°30' E 139°43'0 0.0
2014-Jul-28 06:29N 35°30' E 139°43'0 0.0
2014-Jul-28 05:32N 35°30' E 139°43'0 0.0
2014-Jul-28 04:29N 35°30' E 139°43'0 0.0
2014-Jul-28 03:23N 35°30' E 139°43'0 0.0
2014-Jul-28 02:32N 35°30' E 139°43'0 0.0
2014-Jul-28 01:32N 35°30' E 139°43'0 0.0
2014-Jul-28 00:32N 35°30' E 139°43'0 0.0
2014-Jul-27 23:32N 35°30' E 139°43'0 0.0
2014-Jul-27 22:32N 35°30' E 139°43'3 3.3
2014-Jul-27 21:34N 35°27' E 139°43'4 3.6
2014-Jul-27 20:31N 35°23' E 139°44'0 0.0
2014-Jul-27 19:31N 35°23' E 139°44'0 0.1
2014-Jul-27 18:31N 35°23' E 139°45'0 0.0
2014-Jul-27 17:31N 35°23' E 139°45'0 0.1
2014-Jul-27 16:34N 35°23' E 139°45'1010.2
2014-Jul-27 15:34N 35°13' E 139°47'1111.4
2014-Jul-27 14:34N 35°02' E 139°44'27 0.8
2014-Jul-26 07:12N 34°37' E 139°56'1911.1
2014-Jul-26 05:32N 34°54' E 139°46'1010.7
2014-Jul-26 04:33N 35°04' E 139°44'1110.9
2014-Jul-26 03:34N 35°15' E 139°46'10 9.8
2014-Jul-26 02:34N 35°24' E 139°43'5 5.3
2014-Jul-26 01:33N 35°30' E 139°43'1 0.7
2014-Jul-26 00:32N 35°30' E 139°43'0 0.0
2014-Jul-25 23:32N 35°30' E 139°43'0 0.0
2014-Jul-25 22:32N 35°30' E 139°43'0 0.0
2014-Jul-25 21:32N 35°30' E 139°43'1 1.4
2014-Jul-25 20:33N 35°29' E 139°42'6 5.5
2014-Jul-25 19:33N 35°24' E 139°44'0 0.0
2014-Jul-25 18:33N 35°24' E 139°44'0 0.0
2014-Jul-25 17:33N 35°24' E 139°44'0 0.1
2014-Jul-25 16:33N 35°24' E 139°44'0 0.1
2014-Jul-25 15:33N 35°24' E 139°44'4 3.8
2014-Jul-25 14:34N 35°20' E 139°43'1110.7
2014-Jul-25 13:33N 35°09' E 139°46'1211.7
2014-Jul-25 12:33N 34°58' E 139°43'44 1.6
2014-Jul-24 08:11N 34°18' E 140°07'1210.4
2014-Jul-24 07:03N 34°29' E 140°01'2011.4
2014-Jul-24 05:18N 34°47' E 139°50'1012.4
2014-Jul-24 04:30N 34°56' E 139°44'1010.7
2014-Jul-24 03:33N 35°06' E 139°45'1110.6
2014-Jul-24 02:33N 35°16' E 139°46'9 9.5
2014-Jul-24 01:33N 35°26' E 139°45'5 4.6
2014-Jul-24 00:34N 35°30' E 139°43'0 0.0
2014-Jul-23 23:33N 35°30' E 139°43'0 0.0
2014-Jul-23 22:33N 35°30' E 139°43'0 0.0
2014-Jul-23 21:33N 35°30' E 139°43'0 0.0
2014-Jul-23 20:33N 35°30' E 139°43'5 5.3
2014-Jul-23 19:34N 35°25' E 139°45'1 1.2
2014-Jul-23 18:31N 35°24' E 139°45'0 0.0
2014-Jul-23 17:31N 35°24' E 139°45'0 0.0
2014-Jul-23 16:31N 35°24' E 139°45'0 0.0
2014-Jul-23 15:31N 35°24' E 139°45'2 2.0
2014-Jul-23 14:33N 35°22' E 139°44'1211.6
2014-Jul-23 13:33N 35°11' E 139°47'1211.7
2014-Jul-23 12:33N 34°59' E 139°44'7 0.2
2014-Jul-22 04:33N 34°53' E 139°46'1211.7
2014-Jul-22 03:33N 35°04' E 139°44'1110.9
2014-Jul-22 02:33N 35°15' E 139°46'10 9.7
2014-Jul-22 01:33N 35°25' E 139°43'5 5.1
2014-Jul-22 00:34N 35°30' E 139°43'1 0.5
2014-Jul-21 23:32N 35°30' E 139°43'0 0.0
2014-Jul-21 22:32N 35°30' E 139°43'0 0.0
2014-Jul-21 21:32N 35°30' E 139°43'0 0.0
2014-Jul-21 20:32N 35°30' E 139°43'0 0.0
2014-Jul-21 20:17N 35°30' E 139°43'0 0.0
2014-Jul-21 19:32N 35°30' E 139°43'0 0.0
2014-Jul-21 18:32N 35°30' E 139°43'0 0.0
2014-Jul-21 17:32N 35°30' E 139°43'0 0.0
2014-Jul-21 16:32N 35°30' E 139°43'0 0.0
2014-Jul-21 15:32N 35°30' E 139°43'0 0.0
2014-Jul-21 14:32N 35°30' E 139°43'0 0.0
2014-Jul-21 13:32N 35°30' E 139°43'0 0.0
2014-Jul-21 12:32N 35°30' E 139°43'0 0.0
2014-Jul-21 11:32N 35°30' E 139°43'0 0.0
2014-Jul-21 10:32N 35°30' E 139°43'0 0.0
2014-Jul-21 09:29N 35°30' E 139°43'0 0.0
2014-Jul-21 08:32N 35°30' E 139°43'0 0.0
2014-Jul-21 07:32N 35°30' E 139°43'0 0.0
2014-Jul-21 06:32N 35°30' E 139°43'0 0.0
2014-Jul-21 05:32N 35°30' E 139°43'0 0.0
2014-Jul-21 04:32N 35°30' E 139°43'0 0.0
2014-Jul-21 03:32N 35°30' E 139°43'0 0.0
2014-Jul-21 02:32N 35°30' E 139°43'5 4.9
2014-Jul-21 01:33N 35°26' E 139°45'2 1.8
2014-Jul-21 00:32N 35°24' E 139°45'0 0.0
2014-Jul-20 23:32N 35°24' E 139°45'0 0.1
2014-Jul-20 22:32N 35°24' E 139°45'0 0.0
2014-Jul-20 21:32N 35°24' E 139°45'0 0.0
2014-Jul-20 20:32N 35°24' E 139°45'0 0.0
2014-Jul-20 19:32N 35°24' E 139°45'0 0.0
2014-Jul-20 18:32N 35°24' E 139°45'0 0.0
2014-Jul-20 17:32N 35°24' E 139°45'4 4.4
2014-Jul-20 16:33N 35°20' E 139°43'1110.6
2014-Jul-20 15:33N 35°09' E 139°46'1211.8
2014-Jul-20 14:33N 34°58' E 139°43'  
Track history (hours):
 
Tides and Currents Weather Stations Pressure Air Temp Water Temp Dewpoint Dewpoint Depression Visibility Wind Speed Wind Dir Waves Ship Positions

Seneimaru

Last reported at 2014-Jul-29 11:28 UTC. Time now 2014-Jul-30 09:14 UTC.
Position N 34°10' E 140°12'.

Length 72 m; draft 5.9 m.

Type: Cargo ship. MMSI: 431100477.

Date/timePositionNaut miles runAvg speedWind from/ knotsBaromVisibWave heightAir tempDewpointWater temp
2014-Jul-29 11:28N 34°10' E 140°12'10 9.6
2014-Jul-29 10:27N 34°19' E 140°07'1010.8
2014-Jul-29 09:33N 34°28' E 140°01'3311.0
2014-Jul-29 06:33N 34°57' E 139°43'1110.6
2014-Jul-29 05:33N 35°08' E 139°45'1110.6
2014-Jul-29 04:33N 35°18' E 139°44'10 9.7
2014-Jul-29 03:33N 35°28' E 139°47'4 3.8
2014-Jul-29 02:32N 35°30' E 139°43'0 0.0
2014-Jul-29 01:32N 35°30' E 139°43'0 0.0
2014-Jul-29 00:32N 35°30' E 139°43'0 0.0
2014-Jul-28 23:32N 35°30' E 139°43'0 0.0
2014-Jul-28 22:32N 35°30' E 139°43'0 0.0
2014-Jul-28 21:32N 35°30' E 139°43'0 0.0
2014-Jul-28 20:32N 35°30' E 139°43'0 0.0
2014-Jul-28 19:32N 35°30' E 139°43'0 0.0
2014-Jul-28 18:32N 35°30' E 139°43'0 0.0
2014-Jul-28 17:32N 35°30' E 139°43'0 0.0
2014-Jul-28 16:32N 35°30' E 139°43'0 0.0
2014-Jul-28 15:32N 35°30' E 139°43'0 0.0
2014-Jul-28 14:32N 35°30' E 139°43'0 0.0
2014-Jul-28 13:32N 35°30' E 139°43'0 0.0
2014-Jul-28 12:32N 35°30' E 139°43'0 0.0
2014-Jul-28 11:32N 35°30' E 139°43'0 0.0
2014-Jul-28 10:32N 35°30' E 139°43'0 0.0
2014-Jul-28 09:32N 35°30' E 139°43'0 0.0
2014-Jul-28 08:32N 35°30' E 139°43'0 0.0
2014-Jul-28 07:32N 35°30' E 139°43'0 0.0
2014-Jul-28 06:29N 35°30' E 139°43'0 0.0
2014-Jul-28 05:32N 35°30' E 139°43'0 0.0
2014-Jul-28 04:29N 35°30' E 139°43'0 0.0
2014-Jul-28 03:23N 35°30' E 139°43'0 0.0
2014-Jul-28 02:32N 35°30' E 139°43'0 0.0
2014-Jul-28 01:32N 35°30' E 139°43'0 0.0
2014-Jul-28 00:32N 35°30' E 139°43'0 0.0
2014-Jul-27 23:32N 35°30' E 139°43'0 0.0
2014-Jul-27 22:32N 35°30' E 139°43'3 3.3
2014-Jul-27 21:34N 35°27' E 139°43'4 3.6
2014-Jul-27 20:31N 35°23' E 139°44'0 0.0
2014-Jul-27 19:31N 35°23' E 139°44'0 0.1
2014-Jul-27 18:31N 35°23' E 139°45'0 0.0
2014-Jul-27 17:31N 35°23' E 139°45'0 0.1
2014-Jul-27 16:34N 35°23' E 139°45'1010.2
2014-Jul-27 15:34N 35°13' E 139°47'1111.4
2014-Jul-27 14:34N 35°02' E 139°44'27 0.8
2014-Jul-26 07:12N 34°37' E 139°56'1911.1
2014-Jul-26 05:32N 34°54' E 139°46'1010.7
2014-Jul-26 04:33N 35°04' E 139°44'1110.9
2014-Jul-26 03:34N 35°15' E 139°46'10 9.8
2014-Jul-26 02:34N 35°24' E 139°43'5 5.3
2014-Jul-26 01:33N 35°30' E 139°43'1 0.7
2014-Jul-26 00:32N 35°30' E 139°43'0 0.0
2014-Jul-25 23:32N 35°30' E 139°43'0 0.0
2014-Jul-25 22:32N 35°30' E 139°43'0 0.0
2014-Jul-25 21:32N 35°30' E 139°43'1 1.4
2014-Jul-25 20:33N 35°29' E 139°42'6 5.5
2014-Jul-25 19:33N 35°24' E 139°44'0 0.0
2014-Jul-25 18:33N 35°24' E 139°44'0 0.0
2014-Jul-25 17:33N 35°24' E 139°44'0 0.1
2014-Jul-25 16:33N 35°24' E 139°44'0 0.1
2014-Jul-25 15:33N 35°24' E 139°44'4 3.8
2014-Jul-25 14:34N 35°20' E 139°43'1110.7
2014-Jul-25 13:33N 35°09' E 139°46'1211.7
2014-Jul-25 12:33N 34°58' E 139°43'44 1.6
2014-Jul-24 08:11N 34°18' E 140°07'1210.4
2014-Jul-24 07:03N 34°29' E 140°01'2011.4
2014-Jul-24 05:18N 34°47' E 139°50'1012.4
2014-Jul-24 04:30N 34°56' E 139°44'1010.7
2014-Jul-24 03:33N 35°06' E 139°45'1110.6
2014-Jul-24 02:33N 35°16' E 139°46'9 9.5
2014-Jul-24 01:33N 35°26' E 139°45'5 4.6
2014-Jul-24 00:34N 35°30' E 139°43'0 0.0
2014-Jul-23 23:33N 35°30' E 139°43'0 0.0
2014-Jul-23 22:33N 35°30' E 139°43'0 0.0
2014-Jul-23 21:33N 35°30' E 139°43'0 0.0
2014-Jul-23 20:33N 35°30' E 139°43'5 5.3
2014-Jul-23 19:34N 35°25' E 139°45'1 1.2
2014-Jul-23 18:31N 35°24' E 139°45'0 0.0
2014-Jul-23 17:31N 35°24' E 139°45'0 0.0
2014-Jul-23 16:31N 35°24' E 139°45'0 0.0
2014-Jul-23 15:31N 35°24' E 139°45'2 2.0
2014-Jul-23 14:33N 35°22' E 139°44'1211.6
2014-Jul-23 13:33N 35°11' E 139°47'1211.7
2014-Jul-23 12:33N 34°59' E 139°44'7 0.2
2014-Jul-22 04:33N 34°53' E 139°46'1211.7
2014-Jul-22 03:33N 35°04' E 139°44'1110.9
2014-Jul-22 02:33N 35°15' E 139°46'10 9.7
2014-Jul-22 01:33N 35°25' E 139°43'5 5.1
2014-Jul-22 00:34N 35°30' E 139°43'1 0.5
2014-Jul-21 23:32N 35°30' E 139°43'0 0.0
2014-Jul-21 22:32N 35°30' E 139°43'0 0.0
2014-Jul-21 21:32N 35°30' E 139°43'0 0.0
2014-Jul-21 20:32N 35°30' E 139°43'0 0.0
2014-Jul-21 20:17N 35°30' E 139°43'0 0.0
2014-Jul-21 19:32N 35°30' E 139°43'0 0.0
2014-Jul-21 18:32N 35°30' E 139°43'0 0.0
2014-Jul-21 17:32N 35°30' E 139°43'0 0.0
2014-Jul-21 16:32N 35°30' E 139°43'0 0.0
2014-Jul-21 15:32N 35°30' E 139°43'0 0.0
2014-Jul-21 14:32N 35°30' E 139°43'0 0.0
2014-Jul-21 13:32N 35°30' E 139°43'0 0.0
2014-Jul-21 12:32N 35°30' E 139°43'0 0.0
2014-Jul-21 11:32N 35°30' E 139°43'0 0.0
2014-Jul-21 10:32N 35°30' E 139°43'0 0.0
2014-Jul-21 09:29N 35°30' E 139°43'0 0.0
2014-Jul-21 08:32N 35°30' E 139°43'0 0.0
2014-Jul-21 07:32N 35°30' E 139°43'0 0.0
2014-Jul-21 06:32N 35°30' E 139°43'0 0.0
2014-Jul-21 05:32N 35°30' E 139°43'0 0.0
2014-Jul-21 04:32N 35°30' E 139°43'0 0.0
2014-Jul-21 03:32N 35°30' E 139°43'0 0.0
2014-Jul-21 02:32N 35°30' E 139°43'5 4.9
2014-Jul-21 01:33N 35°26' E 139°45'2 1.8
2014-Jul-21 00:32N 35°24' E 139°45'0 0.0
2014-Jul-20 23:32N 35°24' E 139°45'0 0.1
2014-Jul-20 22:32N 35°24' E 139°45'0 0.0
2014-Jul-20 21:32N 35°24' E 139°45'0 0.0
2014-Jul-20 20:32N 35°24' E 139°45'0 0.0
2014-Jul-20 19:32N 35°24' E 139°45'0 0.0
2014-Jul-20 18:32N 35°24' E 139°45'0 0.0
2014-Jul-20 17:32N 35°24' E 139°45'4 4.4
2014-Jul-20 16:33N 35°20' E 139°43'1110.6
2014-Jul-20 15:33N 35°09' E 139°46'1211.8
2014-Jul-20 14:33N 34°58' E 139°43'  

Dump ship's entire track history